Time;durP1;ratioP1;P1;durP2;ratioP2;P2;SDS_P1;SDS_P2;PMS_P1;PMS_P2;Temp;Humidity;BMP_temperature;BMP_pressure;BME280_temperature;BME280_humidity;BME280_pressure;Samples;Min_cycle;Max_cycle;Signal;HPM_P1;HPM_P2
2022/11/29 00:00:24;;;;;;;46.83;25.27;;;8.40;99.90;;;;;;5074847;28;20024;-67
2022/11/29 00:02:52;;;;;;;53.13;25.30;;;8.30;99.90;;;;;;5076027;28;20024;-72
2022/11/29 00:05:17;;;;;;;51.97;23.70;;;8.30;99.90;;;;;;5076384;28;20090;-68
2022/11/29 00:07:43;;;;;;;38.88;21.58;;;8.40;99.90;;;;;;5075662;28;20028;-69
2022/11/29 00:10:09;;;;;;;45.00;23.27;;;8.20;99.90;;;;;;5075881;28;20416;-68
2022/11/29 00:12:35;;;;;;;59.58;23.92;;;8.00;99.90;;;;;;5075475;28;20034;-67
2022/11/29 00:15:00;;;;;;;57.33;25.70;;;7.80;99.90;;;;;;5075876;28;20183;-68
2022/11/29 00:17:26;;;;;;;54.67;26.15;;;7.90;99.90;;;;;;5075787;28;20020;-67
2022/11/29 00:19:52;;;;;;;54.60;27.95;;;7.80;99.90;;;;;;5075544;28;20112;-67
2022/11/29 00:22:17;;;;;;;112.05;31.42;;;8.00;99.90;;;;;;5075849;28;20036;-69
2022/11/29 00:24:43;;;;;;;74.93;29.85;;;8.00;99.90;;;;;;5075530;28;20469;-67
2022/11/29 00:27:09;;;;;;;66.72;31.40;;;8.00;99.90;;;;;;5057482;28;20075;-68
2022/11/29 00:29:35;;;;;;;118.85;34.22;;;8.00;99.90;;;;;;5075413;28;20031;-68
2022/11/29 00:32:01;;;;;;;71.88;29.88;;;8.10;99.90;;;;;;5075720;28;20020;-67
2022/11/29 00:34:27;;;;;;;70.35;30.45;;;8.20;99.90;;;;;;5075361;28;20028;-67
2022/11/29 00:36:53;;;;;;;61.38;28.65;;;8.20;99.90;;;;;;5075226;28;20035;-68
2022/11/29 00:39:18;;;;;;;62.10;29.02;;;8.10;99.90;;;;;;5075294;28;20024;-68
2022/11/29 00:41:44;;;;;;;67.75;32.15;;;8.00;99.90;;;;;;5073600;28;20036;-69
2022/11/29 00:44:10;;;;;;;93.60;33.58;;;8.00;99.90;;;;;;5075215;28;20029;-67
2022/11/29 00:46:36;;;;;;;61.65;27.35;;;8.00;99.90;;;;;;5075249;28;20108;-68
2022/11/29 00:49:03;;;;;;;57.30;27.58;;;7.90;99.90;;;;;;5075125;28;20052;-68
2022/11/29 00:51:28;;;;;;;66.57;26.95;;;7.70;99.90;;;;;;5075320;28;20111;-67
2022/11/29 00:53:54;;;;;;;106.47;28.60;;;7.60;99.90;;;;;;5074827;28;20047;-68
2022/11/29 00:56:20;;;;;;;101.50;27.15;;;7.50;99.90;;;;;;5074979;28;20039;-68
2022/11/29 00:58:47;;;;;;;93.38;28.90;;;7.30;99.90;;;;;;5074889;28;20074;-68
2022/11/29 01:01:13;;;;;;;166.20;29.02;;;7.10;99.90;;;;;;5074900;28;20070;-67
2022/11/29 01:03:39;;;;;;;323.45;33.60;;;6.90;99.90;;;;;;5075170;28;20028;-67
2022/11/29 01:06:07;;;;;;;349.17;33.72;;;6.80;99.90;;;;;;5074686;28;20028;-68
2022/11/29 01:08:33;;;;;;;170.38;28.83;;;6.90;99.90;;;;;;5074742;28;20028;-67
2022/11/29 01:11:13;;;;;;;149.63;28.00;;;6.80;99.90;;;;;;5074469;28;20024;-67
2022/11/29 01:13:40;;;;;;;68.72;24.63;;;6.70;99.90;;;;;;5074657;28;20471;-67
2022/11/29 01:16:06;;;;;;;59.60;24.73;;;6.70;99.90;;;;;;5074736;28;20056;-70
2022/11/29 01:18:33;;;;;;;90.93;27.60;;;6.60;99.90;;;;;;5074533;28;20032;-67
2022/11/29 01:21:03;;;;;;;49.45;25.73;;;6.80;99.90;;;;;;5074705;28;20048;-67
2022/11/29 01:23:29;;;;;;;51.58;23.38;;;6.90;99.90;;;;;;5074540;28;20137;-67
2022/11/29 01:26:07;;;;;;;45.80;22.73;;;7.10;99.90;;;;;;5074265;28;20040;-68
2022/11/29 01:28:33;;;;;;;52.00;24.55;;;7.10;99.90;;;;;;5074374;28;20098;-68
2022/11/29 01:31:04;;;;;;;40.90;22.48;;;7.30;99.90;;;;;;5074314;28;20543;-67
2022/11/29 01:33:29;;;;;;;47.00;22.05;;;7.10;99.90;;;;;;5074415;28;20074;-67
2022/11/29 01:35:55;;;;;;;57.17;22.55;;;6.80;99.90;;;;;;5063878;28;20049;-67
2022/11/29 01:38:21;;;;;;;38.05;21.30;;;6.70;99.90;;;;;;5052598;28;20032;-68
2022/11/29 01:41:06;;;;;;;39.95;21.38;;;6.90;99.90;;;;;;5062725;28;20029;-67
2022/11/29 01:43:33;;;;;;;44.22;21.33;;;6.60;99.90;;;;;;5072081;28;20029;-67
2022/11/29 01:45:59;;;;;;;36.22;19.52;;;6.30;99.90;;;;;;5072542;28;20021;-69
2022/11/29 01:48:31;;;;;;;31.55;18.15;;;6.30;99.90;;;;;;5073920;28;20027;-69
2022/11/29 01:51:00;;;;;;;30.27;20.65;;;6.60;99.90;;;;;;5073785;28;20423;-67
2022/11/29 01:53:27;;;;;;;29.65;19.10;;;6.70;99.90;;;;;;5073592;28;20082;-67
2022/11/29 01:56:00;;;;;;;31.83;20.13;;;6.70;99.90;;;;;;5073738;28;20031;-67
2022/11/29 01:58:27;;;;;;;33.28;19.27;;;6.50;99.90;;;;;;5073855;28;20035;-67
2022/11/29 02:00:52;;;;;;;36.90;18.83;;;6.40;99.90;;;;;;5073340;28;20509;-68
2022/11/29 02:03:18;;;;;;;38.13;19.45;;;6.50;99.90;;;;;;5073890;28;20024;-68
2022/11/29 02:05:49;;;;;;;31.02;16.77;;;6.70;99.90;;;;;;5084561;23;20401;-80
2022/11/29 02:08:27;;;;;;;33.67;17.85;;;6.70;99.90;;;;;;5060035;28;20032;-79
2022/11/29 02:11:31;;;;;;;36.83;17.23;;;6.40;99.90;;;;;;5073227;28;20029;-78
2022/11/29 02:14:20;;;;;;;46.80;17.63;;;6.20;99.90;;;;;;5073506;28;20020;-78
2022/11/29 02:17:13;;;;;;;112.68;20.10;;;6.30;99.90;;;;;;5062733;28;20489;-78
2022/11/29 02:19:51;;;;;;;118.65;20.95;;;6.50;99.90;;;;;;5073178;28;20060;-76
2022/11/29 02:22:40;;;;;;;199.40;23.27;;;6.50;99.90;;;;;;5073080;28;20124;-77
2022/11/29 02:25:32;;;;;;;308.60;22.08;;;6.80;99.90;;;;;;5073223;28;20028;-79
2022/11/29 02:28:16;;;;;;;348.55;22.80;;;6.80;99.90;;;;;;5018269;28;20094;-79
2022/11/29 02:31:14;;;;;;;269.80;21.13;;;6.90;99.90;;;;;;5073253;28;20024;-79
2022/11/29 02:33:45;;;;;;;216.85;19.95;;;7.10;99.90;;;;;;5033548;28;20373;-78
2022/11/29 02:36:33;;;;;;;184.20;19.15;;;7.00;99.90;;;;;;5055323;28;20089;-78
2022/11/29 02:39:22;;;;;;;351.50;23.88;;;7.10;99.90;;;;;;5060525;28;20032;-77
2022/11/29 02:42:09;;;;;;;143.40;17.58;;;6.90;99.90;;;;;;5072877;28;20072;-78
2022/11/29 02:44:52;;;;;;;269.40;17.35;;;6.90;99.90;;;;;;5073133;28;20070;-77
2022/11/29 02:47:36;;;;;;;260.63;17.10;;;7.00;99.90;;;;;;5059036;28;20024;-78
2022/11/29 02:50:02;;;;;;;344.42;18.65;;;6.90;99.90;;;;;;5054760;28;20040;-78
2022/11/29 02:52:46;;;;;;;187.68;16.88;;;6.90;99.90;;;;;;5072744;28;20055;-78
2022/11/29 02:55:28;;;;;;;284.92;16.98;;;6.90;99.90;;;;;;5054110;28;20032;-78
2022/11/29 02:58:07;;;;;;;549.45;23.73;;;6.90;99.90;;;;;;5072571;28;20044;-79
2022/11/29 03:00:37;;;;;;;152.15;15.57;;;7.20;99.90;;;;;;5072744;28;20075;-77
2022/11/29 03:03:41;;;;;;;125.68;15.52;;;7.10;99.90;;;;;;5054582;28;20032;-78
2022/11/29 03:06:20;;;;;;;164.23;14.65;;;6.70;99.90;;;;;;5010632;28;20055;-77
2022/11/29 03:09:14;;;;;;;410.92;20.00;;;6.30;99.90;;;;;;5072862;28;20036;-75
2022/11/29 03:12:01;;;;;;;319.08;20.90;;;6.30;99.90;;;;;;5054666;28;20035;-78
2022/11/29 03:14:43;;;;;;;143.27;15.45;;;6.60;99.90;;;;;;5052811;28;20033;-78
2022/11/29 03:17:29;;;;;;;74.03;13.40;;;6.40;99.90;;;;;;5072419;28;20106;-79
2022/11/29 03:20:05;;;;;;;100.40;14.32;;;6.50;99.90;;;;;;5054249;28;20037;-77
2022/11/29 03:22:40;;;;;;;87.03;14.38;;;6.30;99.90;;;;;;5072768;28;20354;-79
2022/11/29 03:25:16;;;;;;;115.38;15.13;;;6.30;99.90;;;;;;5072833;28;20056;-79
2022/11/29 03:27:50;;;;;;;96.85;14.43;;;6.40;99.90;;;;;;5072610;28;20433;-78
2022/11/29 03:30:18;;;;;;;124.05;14.48;;;6.40;99.90;;;;;;5072770;28;20040;-79
2022/11/29 03:32:57;;;;;;;120.88;13.90;;;6.20;99.90;;;;;;5072488;28;20037;-68
2022/11/29 03:35:42;;;;;;;80.60;12.52;;;6.40;99.90;;;;;;5072455;28;20032;-71
2022/11/29 03:38:38;;;;;;;216.88;16.05;;;6.50;99.90;;;;;;5060640;28;20100;-71
2022/11/29 03:41:19;;;;;;;108.40;14.60;;;6.60;99.90;;;;;;5072450;28;20036;-73
2022/11/29 03:43:47;;;;;;;53.72;11.98;;;6.40;99.90;;;;;;5072431;28;20481;-77
2022/11/29 03:46:41;;;;;;;85.82;14.75;;;6.40;99.90;;;;;;5072364;28;20041;-79
2022/11/29 03:49:36;;;;;;;127.93;15.93;;;6.40;99.90;;;;;;5071655;28;20025;-73
2022/11/29 03:52:17;;;;;;;79.18;14.73;;;6.50;99.90;;;;;;5065221;28;20106;-79
2022/11/29 03:54:55;;;;;;;129.55;16.35;;;6.50;99.90;;;;;;5072444;28;20098;-79
2022/11/29 03:57:48;;;;;;;69.38;13.45;;;6.60;99.90;;;;;;5072291;28;20108;-79
2022/11/29 04:00:15;;;;;;;11.98;10.57;;;6.40;99.90;;;;;;5034330;28;20041;-79
2022/11/29 04:03:18;;;;;;;14.57;11.93;;;6.40;99.90;;;;;;5072358;28;20119;-79
2022/11/29 04:05:53;;;;;;;13.43;11.35;;;6.30;99.90;;;;;;5062528;28;20473;-79
2022/11/29 04:08:44;;;;;;;20.92;12.20;;;6.30;99.90;;;;;;5075698;28;20025;-79
2022/11/29 04:11:53;;;;;;;35.50;12.93;;;6.20;99.90;;;;;;5075876;28;20020;-79
2022/11/29 04:14:37;;;;;;;30.38;12.60;;;6.30;99.90;;;;;;5067250;28;20020;-78
2022/11/29 04:17:34;;;;;;;82.95;13.65;;;6.30;99.90;;;;;;5061903;28;20528;-79
2022/11/29 04:20:32;;;;;;;212.43;16.92;;;6.40;99.90;;;;;;5075405;28;20016;-77
2022/11/29 04:23:20;;;;;;;221.07;16.83;;;6.40;99.90;;;;;;5075459;28;20044;-79
2022/11/29 04:26:16;;;;;;;113.43;14.73;;;6.40;99.90;;;;;;5075753;28;20021;-79
2022/11/29 04:28:53;;;;;;;41.35;13.70;;;6.50;99.90;;;;;;5075293;28;20040;-78
2022/11/29 04:31:31;;;;;;;49.78;12.75;;;6.60;99.90;;;;;;5075510;28;20028;-78
2022/11/29 04:34:18;;;;;;;169.55;16.77;;;6.40;99.90;;;;;;5057331;28;20033;-74
2022/11/29 04:37:08;;;;;;;143.50;14.40;;;6.20;99.90;;;;;;5075589;28;20089;-76
2022/11/29 04:39:54;;;;;;;359.70;20.55;;;6.00;99.90;;;;;;5045475;28;20028;-79
2022/11/29 04:42:42;;;;;;;133.70;15.13;;;6.30;99.90;;;;;;5075190;28;20503;-70
2022/11/29 04:45:34;;;;;;;94.70;14.63;;;6.30;99.90;;;;;;5075140;28;20025;-74
2022/11/29 04:48:00;;;;;;;94.55;14.05;;;5.90;99.90;;;;;;5045085;28;20029;-75
2022/11/29 04:50:50;;;;;;;110.88;13.60;;;5.60;99.90;;;;;;5075176;28;20036;-78
2022/11/29 04:53:37;;;;;;;326.02;20.02;;;5.50;99.90;;;;;;5064185;28;20028;-73
2022/11/29 04:56:18;;;;;;;154.48;15.75;;;5.70;99.90;;;;;;5075166;28;20107;-68
2022/11/29 04:59:18;;;;;;;136.15;13.52;;;5.70;99.90;;;;;;5075035;28;20033;-78
2022/11/29 05:01:57;;;;;;;210.85;16.58;;;5.90;99.90;;;;;;5063641;28;20392;-79
2022/11/29 05:04:34;;;;;;;78.50;14.68;;;6.10;99.90;;;;;;5074941;28;20445;-78
2022/11/29 05:07:28;;;;;;;57.28;12.77;;;6.00;99.90;;;;;;5074914;28;20025;-73
2022/11/29 05:10:15;;;;;;;109.20;13.70;;;5.90;99.90;;;;;;5074834;28;20082;-72
2022/11/29 05:13:14;;;;;;;32.03;12.27;;;6.00;99.90;;;;;;5074730;28;20028;-76
2022/11/29 05:16:01;;;;;;;17.77;11.98;;;5.90;99.90;;;;;;5075495;28;20107;-73
2022/11/29 05:18:45;;;;;;;38.97;12.43;;;5.70;99.90;;;;;;5059897;28;20380;-72
2022/11/29 05:21:56;;;;;;;22.83;12.60;;;5.80;99.90;;;;;;5074733;28;20044;-78
2022/11/29 05:24:50;;;;;;;19.75;12.75;;;6.00;99.90;;;;;;5016025;28;20131;-70
2022/11/29 05:27:21;;;;;;;17.77;12.60;;;6.00;99.90;;;;;;5074598;28;20048;-75
2022/11/29 05:30:15;;;;;;;18.67;13.60;;;6.00;99.90;;;;;;5074648;28;20061;-76
2022/11/29 05:33:24;;;;;;;17.77;13.23;;;6.20;99.90;;;;;;5043992;28;20435;-77
2022/11/29 05:36:00;;;;;;;29.50;14.35;;;6.10;99.90;;;;;;5074268;28;20031;-77
2022/11/29 05:38:56;;;;;;;22.40;12.98;;;5.50;99.90;;;;;;5074172;28;20068;-70
2022/11/29 05:41:46;;;;;;;54.53;15.57;;;5.30;99.90;;;;;;5063273;28;20041;-77
2022/11/29 05:44:20;;;;;;;98.80;17.17;;;5.40;99.90;;;;;;5073944;28;20042;-74
2022/11/29 05:46:59;;;;;;;44.53;15.70;;;5.20;99.90;;;;;;5074127;28;20039;-70
2022/11/29 05:49:54;;;;;;;105.20;17.08;;;5.40;99.90;;;;;;5056256;28;20515;-78
2022/11/29 05:52:49;;;;;;;66.20;15.85;;;5.60;99.90;;;;;;5073764;28;20055;-67
2022/11/29 05:55:36;;;;;;;110.07;17.70;;;5.50;99.90;;;;;;5036096;28;20055;-65
2022/11/29 05:58:13;;;;;;;138.15;19.55;;;5.70;99.90;;;;;;5059831;28;20075;-65
2022/11/29 06:00:58;;;;;;;43.70;17.33;;;5.90;99.90;;;;;;5073569;28;20055;-67
2022/11/29 06:03:35;;;;;;;84.80;18.42;;;5.70;99.90;;;;;;5073747;28;20028;-65
2022/11/29 06:06:13;;;;;;;147.80;19.63;;;5.70;99.90;;;;;;5073253;28;20512;-65
2022/11/29 06:08:57;;;;;;;87.65;18.73;;;6.00;99.90;;;;;;5073372;28;20480;-77
2022/11/29 06:11:43;;;;;;;65.50;18.80;;;6.10;99.90;;;;;;5073217;28;20039;-70
2022/11/29 06:14:44;;;;;;;80.15;18.13;;;6.10;99.90;;;;;;5055664;28;20052;-78
2022/11/29 06:17:28;;;;;;;52.40;17.23;;;6.00;99.90;;;;;;5045218;28;20028;-65
2022/11/29 06:20:17;;;;;;;50.55;19.70;;;5.80;99.90;;;;;;5072939;28;20028;-77
2022/11/29 06:23:11;;;;;;;96.35;17.80;;;5.40;99.90;;;;;;5073283;28;20036;-77
2022/11/29 06:25:56;;;;;;;136.20;26.25;;;5.40;99.90;;;;;;5072813;28;20029;-66
2022/11/29 06:28:41;;;;;;;61.00;22.15;;;5.50;99.90;;;;;;5072779;28;20040;-77
2022/11/29 06:31:09;;;;;;;135.93;24.10;;;5.20;99.90;;;;;;5073178;28;20029;-74
2022/11/29 06:33:49;;;;;;;78.53;20.98;;;5.50;99.90;;;;;;5073111;28;20021;-65
2022/11/29 06:36:23;;;;;;;64.88;20.25;;;5.30;99.90;;;;;;5073386;28;20029;-65
2022/11/29 06:38:49;;;;;;;59.10;17.67;;;5.20;99.90;;;;;;5072974;28;20381;-65
2022/11/29 06:41:19;;;;;;;93.80;19.23;;;5.10;99.90;;;;;;5072838;28;20036;-66
2022/11/29 06:43:45;;;;;;;51.40;18.15;;;5.40;99.90;;;;;;5072804;28;20043;-65
2022/11/29 06:46:38;;;;;;;73.63;17.27;;;5.70;99.90;;;;;;5072884;28;20020;-65
2022/11/29 06:49:09;;;;;;;73.07;19.02;;;5.60;99.90;;;;;;5072753;28;20033;-79
2022/11/29 06:51:48;;;;;;;48.60;16.90;;;5.70;99.90;;;;;;5072796;28;20032;-77
2022/11/29 06:54:36;;;;;;;78.38;17.75;;;5.60;99.90;;;;;;5072820;28;20017;-66
2022/11/29 06:57:36;;;;;;;81.20;18.17;;;5.50;99.90;;;;;;5072867;28;20038;-66
2022/11/29 07:00:11;;;;;;;217.50;23.05;;;5.30;99.90;;;;;;5055126;28;20034;-66
2022/11/29 07:02:54;;;;;;;215.68;25.05;;;5.60;99.90;;;;;;5072418;28;20051;-66
2022/11/29 07:05:30;;;;;;;227.75;21.10;;;5.90;99.90;;;;;;5072370;28;20056;-66
2022/11/29 07:08:00;;;;;;;469.50;25.70;;;5.90;99.90;;;;;;5072406;28;20082;-66
2022/11/29 07:10:29;;;;;;;140.57;19.17;;;5.90;99.90;;;;;;5054331;28;20035;-66
2022/11/29 07:12:55;;;;;;;229.73;24.27;;;6.00;99.90;;;;;;5072239;28;20037;-71
2022/11/29 07:15:22;;;;;;;357.77;24.92;;;6.10;99.90;;;;;;5072672;28;20033;-66
2022/11/29 07:18:19;;;;;;;271.05;22.40;;;6.40;99.90;;;;;;5071029;28;20036;-67
2022/11/29 07:21:05;;;;;;;144.48;21.45;;;6.30;99.90;;;;;;5078276;28;20032;-68
2022/11/29 07:24:00;;;;;;;224.57;21.10;;;6.40;99.90;;;;;;5070933;28;20078;-71
2022/11/29 07:26:43;;;;;;;133.82;19.20;;;6.30;99.90;;;;;;5078950;28;20515;-75
2022/11/29 07:29:36;;;;;;;140.93;18.27;;;6.30;99.90;;;;;;5053630;28;20028;-76
2022/11/29 07:32:17;;;;;;;91.85;17.38;;;6.30;99.90;;;;;;5076795;28;20054;-77
2022/11/29 07:35:02;;;;;;;197.07;20.08;;;5.80;99.90;;;;;;5066706;28;20048;-65
2022/11/29 07:37:49;;;;;;;258.30;22.70;;;5.80;99.90;;;;;;5072405;28;20093;-76
2022/11/29 07:40:18;;;;;;;213.45;20.25;;;5.80;99.90;;;;;;5070555;28;20516;-65
2022/11/29 07:42:59;;;;;;;151.10;18.55;;;5.60;99.90;;;;;;5079382;28;20426;-65
2022/11/29 07:45:32;;;;;;;102.40;18.35;;;5.30;99.90;;;;;;5071991;28;20455;-65
2022/11/29 07:47:58;;;;;;;315.92;23.58;;;5.20;99.90;;;;;;5071902;28;20081;-69
2022/11/29 07:50:25;;;;;;;155.60;21.45;;;5.20;99.90;;;;;;5069838;28;20556;-65
2022/11/29 07:52:52;;;;;;;100.93;20.73;;;5.40;99.90;;;;;;5072210;28;20473;-65
2022/11/29 07:55:20;;;;;;;488.73;30.98;;;5.70;99.90;;;;;;5067758;28;20028;-67
2022/11/29 07:57:46;;;;;;;270.35;26.52;;;5.70;99.90;;;;;;5068067;28;20107;-66
2022/11/29 08:00:13;;;;;;;287.92;26.33;;;5.80;99.90;;;;;;5075408;28;20028;-65
2022/11/29 08:02:39;;;;;;;354.42;26.08;;;5.90;99.90;;;;;;5067106;28;20029;-65
2022/11/29 08:05:05;;;;;;;279.15;25.58;;;6.20;99.90;;;;;;5083565;28;20170;-66
2022/11/29 08:07:34;;;;;;;258.85;25.95;;;6.30;99.90;;;;;;5081646;28;20051;-73
2022/11/29 08:10:00;;;;;;;272.88;24.15;;;6.40;99.90;;;;;;5056963;28;20048;-67
2022/11/29 08:12:26;;;;;;;191.05;23.50;;;6.40;99.90;;;;;;5061063;28;20064;-65
2022/11/29 08:14:51;;;;;;;287.92;22.95;;;6.40;99.90;;;;;;5084273;28;20059;-79
2022/11/29 08:17:17;;;;;;;350.95;25.42;;;6.40;99.90;;;;;;5084648;28;20452;-68
2022/11/29 08:19:43;;;;;;;292.40;26.63;;;6.20;99.90;;;;;;5078030;28;20039;-72
2022/11/29 08:22:11;;;;;;;710.78;38.95;;;6.20;99.90;;;;;;5068741;28;20090;-73
2022/11/29 08:24:36;;;;;;;496.08;33.05;;;6.70;99.90;;;;;;5078318;28;20017;-80
2022/11/29 08:27:02;;;;;;;569.45;34.75;;;6.90;99.90;;;;;;5077084;28;20381;-78
2022/11/29 08:29:28;;;;;;;133.15;22.35;;;6.80;99.90;;;;;;5091212;28;20477;-75
2022/11/29 08:31:54;;;;;;;245.93;24.27;;;6.20;99.90;;;;;;5068414;28;20032;-70
2022/11/29 08:34:21;;;;;;;140.82;21.23;;;6.20;99.90;;;;;;5050393;28;20024;-78
2022/11/29 08:36:48;;;;;;;149.65;21.08;;;6.30;99.90;;;;;;5082959;22;20400;-81
2022/11/29 08:39:13;;;;;;;182.73;22.55;;;6.40;99.90;;;;;;5074465;28;20032;-72
2022/11/29 08:41:39;;;;;;;181.27;25.02;;;5.80;99.90;;;;;;5075678;28;20028;-70
2022/11/29 08:44:05;;;;;;;330.63;28.52;;;5.70;99.90;;;;;;5075012;28;20020;-75
2022/11/29 08:49:15;;;;;;;104.00;21.50;;;5.90;99.90;;;;;;5074879;28;20784;-74
2022/11/29 08:51:41;;;;;;;106.43;19.33;;;5.50;99.90;;;;;;5056079;28;20477;-75
2022/11/29 08:54:07;;;;;;;131.30;19.30;;;5.30;99.90;;;;;;5073131;28;20111;-71
2022/11/29 08:56:34;;;;;;;153.80;18.83;;;5.20;99.90;;;;;;5074615;28;20020;-72
2022/11/29 08:59:00;;;;;;;141.50;21.20;;;5.40;99.90;;;;;;5074501;28;20054;-72
2022/11/29 09:01:27;;;;;;;305.00;23.63;;;5.50;99.90;;;;;;5074447;28;20040;-71
2022/11/29 09:04:01;;;;;;;99.68;20.45;;;5.50;99.90;;;;;;5074719;28;20035;-71
2022/11/29 09:06:33;;;;;;;167.38;21.45;;;5.50;99.90;;;;;;5075028;28;20028;-80
2022/11/29 09:09:00;;;;;;;172.75;20.88;;;5.60;99.90;;;;;;5072937;28;20044;-81
2022/11/29 09:11:27;;;;;;;231.90;24.88;;;5.60;99.90;;;;;;5074644;28;20027;-79
2022/11/29 09:13:57;;;;;;;413.77;26.90;;;6.20;99.90;;;;;;5074750;28;20090;-77
2022/11/29 09:16:25;;;;;;;263.02;25.98;;;6.30;99.90;;;;;;5077953;28;20056;-81
2022/11/29 09:18:54;;;;;;;285.23;26.08;;;6.10;99.90;;;;;;5082267;28;20027;-81
2022/11/29 09:21:22;;;;;;;188.95;25.00;;;6.30;99.90;;;;;;5056969;28;20064;-80
2022/11/29 09:23:49;;;;;;;257.55;28.80;;;6.00;99.90;;;;;;5096388;28;20032;-79
2022/11/29 09:26:18;;;;;;;145.45;25.40;;;6.20;99.90;;;;;;5096809;28;20114;-80
2022/11/29 09:28:44;;;;;;;136.77;26.13;;;6.20;99.90;;;;;;5099080;28;20079;-79
2022/11/29 09:31:14;;;;;;;79.30;24.70;;;6.50;99.90;;;;;;5087981;28;20319;-77
2022/11/29 09:33:40;;;;;;;283.02;28.90;;;6.40;99.90;;;;;;5090945;28;20036;-77
2022/11/29 09:36:07;;;;;;;188.23;31.02;;;6.30;99.90;;;;;;5103856;28;20040;-79
2022/11/29 09:38:34;;;;;;;173.65;31.50;;;6.60;99.90;;;;;;5086108;28;20024;-80
2022/11/29 09:41:36;;;;;;;135.82;30.77;;;6.60;99.90;;;;;;5063602;28;20435;-77
2022/11/29 09:44:07;;;;;;;;;;;6.00;99.90;;;;;;5101190;28;20038;-79
2022/11/29 09:46:56;;;;;;;121.50;30.98;;;6.20;99.90;;;;;;5076644;28;19999;-79
2022/11/29 09:49:37;;;;;;;196.70;32.80;;;6.00;99.90;;;;;;5093796;28;20380;-77
2022/11/29 09:52:28;;;;;;;183.52;33.90;;;6.50;99.90;;;;;;5093700;28;20469;-77
2022/11/29 09:55:06;;;;;;;229.90;35.53;;;6.40;99.90;;;;;;5044670;28;20099;-77
2022/11/29 09:57:32;;;;;;;116.63;32.40;;;6.30;99.90;;;;;;5090236;28;20388;-77
2022/11/29 10:00:04;;;;;;;106.18;32.63;;;6.00;99.90;;;;;;5093521;28;20040;-75
2022/11/29 10:02:44;;;;;;;181.68;36.65;;;6.00;99.90;;;;;;5078241;28;20045;-78
2022/11/29 10:05:45;;;;;;;78.93;31.70;;;6.20;99.90;;;;;;5093475;28;20043;-78
2022/11/29 10:08:14;;;;;;;159.32;36.15;;;6.00;99.90;;;;;;5093577;28;20024;-77
2022/11/29 10:10:46;;;;;;;110.03;33.92;;;5.80;99.90;;;;;;5095073;28;20040;-79
2022/11/29 10:13:26;;;;;;;86.15;32.20;;;6.10;99.90;;;;;;5088886;28;20020;-77
2022/11/29 10:16:21;;;;;;;70.07;32.20;;;6.00;99.90;;;;;;5086738;28;20123;-72
2022/11/29 10:19:09;;;;;;;86.63;32.78;;;6.20;99.90;;;;;;5060049;28;20039;-76
2022/11/29 10:21:40;;;;;;;103.07;33.55;;;6.30;99.90;;;;;;5092883;28;20373;-76
2022/11/29 10:24:16;;;;;;;98.22;33.58;;;6.70;99.90;;;;;;5095074;28;20054;-76
2022/11/29 10:26:43;;;;;;;85.57;32.40;;;6.80;99.90;;;;;;5093407;28;20521;-73
2022/11/29 10:29:15;;;;;;;55.30;30.05;;;6.90;99.90;;;;;;5093397;28;20408;-77
2022/11/29 10:31:48;;;;;;;61.38;29.05;;;6.80;99.90;;;;;;5093608;28;20020;-78
2022/11/29 10:34:17;;;;;;;76.72;31.85;;;7.10;99.90;;;;;;5100151;28;20024;-77
2022/11/29 10:37:00;;;;;;;64.63;31.15;;;7.30;99.90;;;;;;5105023;28;20048;-81
2022/11/29 10:39:47;;;;;;;62.00;28.85;;;7.10;99.90;;;;;;5080010;28;20076;-76
2022/11/29 10:45:22;;;;;;;50.80;25.55;;;7.30;99.90;;;;;;5083846;28;20109;-70
2022/11/29 10:47:49;;;;;;;46.90;25.63;;;7.00;99.90;;;;;;5074687;28;20024;-65
2022/11/29 10:50:26;;;;;;;58.38;29.90;;;7.10;99.90;;;;;;5093071;28;20025;-65
2022/11/29 10:52:57;;;;;;;48.83;27.35;;;7.50;99.90;;;;;;5093040;28;20028;-77
2022/11/29 10:55:24;;;;;;;49.23;26.23;;;7.40;99.90;;;;;;5093497;28;20020;-68
2022/11/29 10:58:13;;;;;;;53.70;26.83;;;7.40;99.90;;;;;;5092916;28;20777;-65
2022/11/29 11:01:00;;;;;;;50.25;27.48;;;7.70;99.90;;;;;;5092965;28;20113;-71
2022/11/29 11:03:31;;;;;;;48.28;26.02;;;7.50;99.90;;;;;;5070849;28;20106;-70
2022/11/29 11:06:04;;;;;;;51.03;27.27;;;7.50;99.90;;;;;;5073172;28;20070;-69
2022/11/29 11:08:31;;;;;;;49.13;28.55;;;7.40;99.90;;;;;;5081224;28;20067;-67
2022/11/29 11:10:58;;;;;;;56.40;29.42;;;7.80;99.90;;;;;;5092963;28;20127;-77
2022/11/29 11:13:27;;;;;;;57.92;28.92;;;7.70;99.90;;;;;;5074766;28;20032;-66
2022/11/29 11:16:06;;;;;;;53.38;29.33;;;7.70;99.90;;;;;;5090913;28;20472;-67
2022/11/29 11:18:32;;;;;;;53.20;27.67;;;7.90;99.90;;;;;;5092535;28;20039;-65
2022/11/29 11:21:02;;;;;;;43.20;25.80;;;8.70;99.90;;;;;;5092829;28;20028;-66
2022/11/29 11:23:33;;;;;;;41.38;25.42;;;9.00;99.90;;;;;;5078147;28;20033;-70
2022/11/29 11:26:05;;;;;;;41.60;24.10;;;9.00;99.90;;;;;;5092763;28;20440;-66
2022/11/29 11:28:42;;;;;;;36.75;21.55;;;9.70;99.90;;;;;;5091520;28;20084;-66
2022/11/29 11:31:10;;;;;;;39.65;22.48;;;9.30;99.90;;;;;;5092344;28;20412;-66
2022/11/29 11:33:38;;;;;;;36.75;21.77;;;10.20;99.90;;;;;;5091926;28;20028;-66
2022/11/29 11:36:19;;;;;;;40.75;20.15;;;10.60;99.90;;;;;;5092413;28;20036;-66
2022/11/29 11:39:08;;;;;;;40.63;20.80;;;11.70;99.90;;;;;;5092212;28;20029;-68
2022/11/29 11:44:40;;;;;;;;;;;12.50;99.90;;;;;;5093103;28;20095;-69
2022/11/29 11:47:14;;;;;;;47.42;22.85;;;13.30;99.90;;;;;;5092004;28;20007;-65
2022/11/29 11:50:10;;;;;;;36.55;23.55;;;13.00;99.90;;;;;;5091059;28;20031;-67
2022/11/29 11:52:47;;;;;;;49.60;28.88;;;12.50;99.90;;;;;;5092060;28;20032;-66
2022/11/29 11:55:38;;;;;;;59.60;29.63;;;11.10;99.90;;;;;;5092781;28;20350;-68
2022/11/29 11:58:03;;;;;;;54.85;30.98;;;10.30;99.90;;;;;;5065347;28;20024;-66
2022/11/29 12:00:53;;;;;;;61.45;33.58;;;10.40;99.90;;;;;;5092121;28;20078;-66
2022/11/29 12:03:34;;;;;;;51.17;31.25;;;11.00;99.90;;;;;;5067659;28;20047;-65
2022/11/29 12:06:44;;;;;;;58.88;33.88;;;10.10;99.90;;;;;;5092223;28;20043;-76
2022/11/29 12:09:18;;;;;;;68.53;36.10;;;10.10;99.90;;;;;;5091838;28;20047;-69
2022/11/29 12:11:52;;;;;;;66.30;38.13;;;9.50;99.90;;;;;;5088002;28;20461;-66
2022/11/29 12:14:40;;;;;;;74.68;39.35;;;9.30;99.90;;;;;;5092109;28;20032;-66
2022/11/29 12:17:44;;;;;;;74.32;42.35;;;9.30;99.90;;;;;;5093004;28;20480;-66
2022/11/29 12:20:32;;;;;;;69.85;38.95;;;9.50;99.90;;;;;;5090532;28;20043;-75
2022/11/29 12:23:15;;;;;;;72.13;39.97;;;9.60;99.90;;;;;;5093050;28;20062;-66
2022/11/29 12:26:04;;;;;;;67.90;35.42;;;9.50;99.90;;;;;;5093060;28;20465;-66
2022/11/29 12:28:37;;;;;;;67.22;35.08;;;9.40;99.90;;;;;;5096236;28;20043;-77
2022/11/29 12:31:30;;;;;;;68.10;37.78;;;9.30;99.90;;;;;;5096773;28;20020;-73
2022/11/29 12:34:26;;;;;;;61.33;33.78;;;9.10;99.90;;;;;;5096693;28;20020;-71
2022/11/29 12:37:38;;;;;;;58.10;34.78;;;8.70;99.90;;;;;;5096816;28;20040;-66
2022/11/29 12:40:21;;;;;;;59.25;35.38;;;8.90;99.90;;;;;;5083175;28;20127;-68
2022/11/29 12:43:21;;;;;;;59.50;35.55;;;9.30;99.90;;;;;;5070423;28;20036;-67
2022/11/29 12:46:17;;;;;;;52.70;26.67;;;9.40;99.90;;;;;;5098367;28;20047;-69
2022/11/29 12:48:52;;;;;;;46.72;28.23;;;9.10;99.90;;;;;;5079624;28;20043;-68
2022/11/29 12:51:24;;;;;;;43.10;24.48;;;9.20;99.90;;;;;;5071554;28;20028;-72
2022/11/29 12:54:14;;;;;;;38.85;24.50;;;9.20;99.90;;;;;;5098871;28;20032;-77
2022/11/29 12:56:59;;;;;;;37.40;22.05;;;9.00;99.90;;;;;;5076217;28;20024;-72
2022/11/29 12:59:49;;;;;;;40.97;22.70;;;8.70;99.90;;;;;;5097370;28;20024;-74
2022/11/29 13:02:43;;;;;;;34.72;21.40;;;8.60;99.90;;;;;;5098319;28;20036;-71
2022/11/29 13:05:17;;;;;;;30.98;20.15;;;8.90;99.90;;;;;;5076009;28;20036;-76
2022/11/29 13:07:52;;;;;;;33.50;18.55;;;9.30;99.90;;;;;;5096733;28;20044;-74
2022/11/29 13:10:40;;;;;;;28.65;19.23;;;9.30;99.90;;;;;;5097150;28;20024;-73
2022/11/29 13:13:16;;;;;;;33.92;19.60;;;8.80;99.90;;;;;;5097727;28;20044;-71
2022/11/29 13:15:56;;;;;;;31.65;18.92;;;8.90;99.90;;;;;;5097623;28;20062;-75
2022/11/29 13:18:40;;;;;;;33.55;19.50;;;8.60;99.90;;;;;;5097702;28;20031;-66
2022/11/29 13:21:15;;;;;;;33.58;19.08;;;8.50;99.90;;;;;;5098497;28;20036;-69
2022/11/29 13:24:03;;;;;;;29.23;19.30;;;8.80;99.90;;;;;;5098085;28;20020;-76
2022/11/29 13:26:29;;;;;;;34.35;19.90;;;9.00;99.90;;;;;;5097727;28;20112;-70
2022/11/29 13:28:57;;;;;;;44.38;21.23;;;8.80;99.90;;;;;;5096404;28;20016;-70
2022/11/29 13:31:24;;;;;;;37.90;22.70;;;8.80;99.90;;;;;;5097478;28;20032;-73
2022/11/29 13:34:17;;;;;;;33.70;19.92;;;8.90;99.90;;;;;;5097223;28;20016;-65